createdAt,value
2023-04-27T00:00:46.362Z,0.00
2023-04-27T00:01:46.418Z,0.00
2023-04-27T00:02:46.533Z,0.00
2023-04-27T00:03:46.483Z,0.00
2023-04-27T00:04:46.631Z,0.00
2023-04-27T00:05:46.532Z,0.00
2023-04-27T00:06:46.437Z,0.00
2023-04-27T00:07:46.452Z,0.00
2023-04-27T00:08:46.465Z,0.00
2023-04-27T00:09:46.484Z,0.00
2023-04-27T00:10:46.487Z,0.00
2023-04-27T00:11:46.510Z,0.00
2023-04-27T00:12:46.544Z,0.00
2023-04-27T00:13:46.526Z,0.00
2023-04-27T00:14:46.575Z,0.00
2023-04-27T00:15:46.552Z,0.00
2023-04-27T00:16:46.601Z,0.00
2023-04-27T00:17:46.633Z,0.00
2023-04-27T00:18:46.593Z,0.00
2023-04-27T00:19:46.595Z,0.00
2023-04-27T00:20:46.612Z,0.00
2023-04-27T00:21:46.624Z,0.00
2023-04-27T00:22:46.632Z,0.00
2023-04-27T00:23:46.661Z,0.00
2023-04-27T00:24:46.657Z,0.00
2023-04-27T00:25:46.675Z,0.00
2023-04-27T00:26:46.682Z,0.00
2023-04-27T00:27:46.701Z,0.00
2023-04-27T00:28:46.712Z,0.00
2023-04-27T00:29:46.722Z,0.00
2023-04-27T00:30:46.741Z,0.00
2023-04-27T00:31:46.754Z,0.00
2023-04-27T00:32:46.788Z,0.00
2023-04-27T00:33:46.765Z,0.00
2023-04-27T00:34:46.777Z,0.00
2023-04-27T00:35:46.798Z,0.00
2023-04-27T00:36:46.809Z,0.00
2023-04-27T00:37:46.812Z,0.00
2023-04-27T00:38:46.830Z,0.00
2023-04-27T00:39:46.853Z,0.00
2023-04-27T00:40:46.849Z,0.00
2023-04-27T00:41:46.863Z,0.00
2023-04-27T00:42:46.875Z,0.00
2023-04-27T00:43:46.896Z,0.00
2023-04-27T00:44:46.910Z,0.00
2023-04-27T00:45:46.935Z,0.00
2023-04-27T00:46:46.923Z,0.00
2023-04-27T00:47:46.988Z,0.00
2023-04-27T00:48:46.947Z,0.00
2023-04-27T00:49:46.963Z,0.00
2023-04-27T00:50:46.970Z,0.00
2023-04-27T00:51:46.984Z,0.00
2023-04-27T00:52:46.995Z,0.00
2023-04-27T00:53:47.009Z,0.00
2023-04-27T00:54:47.019Z,0.00
2023-04-27T00:55:47.034Z,0.00
2023-04-27T00:56:47.043Z,0.00
2023-04-27T00:57:47.055Z,0.00
2023-04-27T00:58:47.069Z,0.00
2023-04-27T00:59:47.081Z,0.00
2023-04-27T01:00:47.093Z,0.00
2023-04-27T01:01:47.216Z,0.00
2023-04-27T01:02:47.272Z,0.00
2023-04-27T01:03:47.272Z,0.00
2023-04-27T01:04:47.144Z,0.00
2023-04-27T01:05:47.157Z,0.00
2023-04-27T01:06:47.175Z,0.00
2023-04-27T01:07:47.177Z,0.00
2023-04-27T01:08:47.184Z,0.00
2023-04-27T01:09:47.202Z,0.00
2023-04-27T01:10:47.217Z,0.00
2023-04-27T01:11:47.221Z,0.00
2023-04-27T01:12:47.238Z,0.00
2023-04-27T01:13:47.246Z,0.00
2023-04-27T01:14:47.260Z,0.00
2023-04-27T01:15:47.270Z,0.00
2023-04-27T01:16:47.308Z,0.00
2023-04-27T01:17:47.326Z,0.00
2023-04-27T01:18:47.308Z,0.00
2023-04-27T01:19:47.322Z,0.00
2023-04-27T01:20:47.330Z,0.00
2023-04-27T01:21:47.343Z,0.00
2023-04-27T01:22:47.353Z,0.00
2023-04-27T01:23:47.389Z,0.00
2023-04-27T01:24:47.383Z,0.00
2023-04-27T01:25:47.422Z,0.00
2023-04-27T01:26:47.405Z,0.00
2023-04-27T01:27:47.413Z,0.00
2023-04-27T01:28:47.435Z,0.00
2023-04-27T01:29:47.439Z,0.00
2023-04-27T01:30:47.453Z,0.00
2023-04-27T01:31:47.659Z,0.00
2023-04-27T01:32:47.490Z,0.00
2023-04-27T01:33:47.490Z,0.00
2023-04-27T01:34:47.498Z,0.00
2023-04-27T01:35:47.513Z,0.00
2023-04-27T01:36:47.520Z,0.00
2023-04-27T01:37:47.534Z,0.00
2023-04-27T01:38:47.558Z,0.00
2023-04-27T01:39:47.576Z,0.00
2023-04-27T01:40:47.577Z,0.00
2023-04-27T01:41:47.586Z,0.00
2023-04-27T01:42:47.598Z,0.00
2023-04-27T01:43:47.613Z,0.00
2023-04-27T01:44:47.620Z,0.00
2023-04-27T01:45:47.636Z,0.00
2023-04-27T01:46:47.731Z,0.00
2023-04-27T01:47:47.685Z,0.00
2023-04-27T01:48:47.675Z,0.00
2023-04-27T01:49:47.678Z,0.00
2023-04-27T01:50:47.699Z,0.00
2023-04-27T01:51:47.741Z,0.00
2023-04-27T01:52:47.749Z,0.00
2023-04-27T01:53:47.731Z,0.00
2023-04-27T01:54:47.741Z,0.00
2023-04-27T01:55:47.759Z,0.00
2023-04-27T01:56:47.768Z,0.00
2023-04-27T01:57:47.804Z,0.00
2023-04-27T01:58:47.795Z,0.00
2023-04-27T01:59:47.805Z,0.00
2023-04-27T02:00:47.824Z,0.00
2023-04-27T02:01:47.834Z,0.00
2023-04-27T02:02:47.979Z,0.00
2023-04-27T02:03:47.954Z,0.00
2023-04-27T02:04:47.964Z,0.00
2023-04-27T02:05:47.880Z,0.00
2023-04-27T02:06:47.887Z,0.00
2023-04-27T02:07:47.900Z,0.00
2023-04-27T02:08:47.911Z,0.00
2023-04-27T02:09:47.946Z,0.00
2023-04-27T02:10:47.934Z,0.00
2023-04-27T02:11:47.944Z,0.00
2023-04-27T02:12:47.956Z,0.00
2023-04-27T02:13:48.018Z,0.00
2023-04-27T02:14:47.979Z,0.00
2023-04-27T02:15:48.047Z,0.00
2023-04-27T02:16:48.007Z,0.00
2023-04-27T02:17:48.085Z,0.00
2023-04-27T02:18:48.025Z,0.00
2023-04-27T02:19:48.055Z,0.00
2023-04-27T02:20:48.056Z,0.00
2023-04-27T02:21:48.066Z,0.00
2023-04-27T02:22:48.069Z,0.00
2023-04-27T02:23:48.089Z,0.00
2023-04-27T02:24:48.093Z,0.00
2023-04-27T02:25:48.106Z,0.00
2023-04-27T02:26:48.121Z,0.00
2023-04-27T02:27:48.130Z,0.00
2023-04-27T02:28:48.156Z,0.00
2023-04-27T02:29:48.168Z,0.00
2023-04-27T02:30:48.162Z,0.00
2023-04-27T02:31:48.235Z,0.00
2023-04-27T02:32:48.230Z,0.00
2023-04-27T02:33:48.221Z,0.00
2023-04-27T02:34:48.212Z,0.00
2023-04-27T02:35:48.226Z,0.00
2023-04-27T02:36:48.236Z,0.00
2023-04-27T02:37:48.245Z,0.00
2023-04-27T02:38:48.266Z,0.00
2023-04-27T02:39:48.273Z,0.00
2023-04-27T02:40:48.281Z,0.00
2023-04-27T02:41:48.299Z,0.00
2023-04-27T02:42:48.331Z,0.00
2023-04-27T02:43:48.313Z,0.00
2023-04-27T02:44:48.333Z,0.00
2023-04-27T02:45:48.340Z,0.00
2023-04-27T02:46:48.371Z,0.00
2023-04-27T02:47:48.415Z,0.00
2023-04-27T02:48:48.381Z,0.00
2023-04-27T02:49:48.385Z,0.00
2023-04-27T02:50:48.404Z,0.00
2023-04-27T02:51:48.407Z,0.00
2023-04-27T02:52:48.422Z,0.00
2023-04-27T02:53:48.436Z,0.00
2023-04-27T02:54:48.453Z,0.00
2023-04-27T02:55:48.472Z,0.00
2023-04-27T02:56:48.465Z,0.00
2023-04-27T02:57:48.482Z,0.00
2023-04-27T02:58:48.488Z,0.00
2023-04-27T02:59:48.513Z,0.00
2023-04-27T03:00:48.929Z,0.00
2023-04-27T03:01:48.525Z,0.00
2023-04-27T03:02:48.629Z,0.00
2023-04-27T03:03:48.746Z,0.00
2023-04-27T03:04:48.604Z,0.00
2023-04-27T03:05:48.579Z,0.00
2023-04-27T03:06:48.581Z,0.00
2023-04-27T03:07:48.598Z,0.00
2023-04-27T03:08:48.624Z,0.00
2023-04-27T03:09:48.619Z,0.00
2023-04-27T03:10:48.641Z,4.00
2023-04-27T03:11:48.637Z,4.00
2023-04-27T03:12:48.653Z,4.00
2023-04-27T03:13:48.665Z,0.00
2023-04-27T03:14:48.677Z,4.00
2023-04-27T03:15:48.698Z,4.00
2023-04-27T03:16:48.833Z,4.00
2023-04-27T03:17:48.743Z,4.00
2023-04-27T03:18:48.720Z,4.00
2023-04-27T03:19:48.740Z,8.00
2023-04-27T03:20:48.747Z,8.00
2023-04-27T03:21:48.759Z,8.00
2023-04-27T03:22:48.769Z,8.00
2023-04-27T03:23:48.781Z,12.00
2023-04-27T03:24:48.790Z,16.00
2023-04-27T03:25:48.809Z,12.00
2023-04-27T03:26:48.817Z,16.00
2023-04-27T03:27:48.845Z,20.00
2023-04-27T03:28:48.838Z,20.00
2023-04-27T03:29:48.853Z,24.00
2023-04-27T03:30:48.861Z,28.00
2023-04-27T03:31:48.935Z,36.00
2023-04-27T03:32:48.919Z,40.00
2023-04-27T03:33:48.895Z,44.00
2023-04-27T03:34:48.906Z,52.00
2023-04-27T03:35:48.918Z,60.00
2023-04-27T03:36:48.932Z,68.00
2023-04-27T03:37:48.945Z,76.00
2023-04-27T03:38:48.967Z,92.00
2023-04-27T03:39:48.972Z,100.00
2023-04-27T03:40:48.980Z,116.00
2023-04-27T03:41:48.988Z,128.00
2023-04-27T03:42:49.008Z,140.00
2023-04-27T03:43:49.010Z,152.00
2023-04-27T03:44:49.021Z,160.00
2023-04-27T03:45:49.083Z,168.00
2023-04-27T03:46:49.050Z,180.00
2023-04-27T03:47:49.104Z,188.00
2023-04-27T03:48:49.070Z,196.00
2023-04-27T03:49:49.081Z,208.00
2023-04-27T03:50:49.089Z,224.00
2023-04-27T03:51:49.099Z,252.00
2023-04-27T03:52:49.114Z,280.00
2023-04-27T03:53:49.130Z,316.00
2023-04-27T03:54:49.140Z,348.00
2023-04-27T03:55:49.152Z,384.00
2023-04-27T03:56:49.165Z,416.00
2023-04-27T03:57:49.175Z,440.00
2023-04-27T03:58:49.186Z,468.00
2023-04-27T03:59:49.197Z,484.00
2023-04-27T04:00:49.207Z,508.00
2023-04-27T04:01:49.292Z,532.00
2023-04-27T04:02:49.401Z,556.00
2023-04-27T04:03:49.349Z,580.00
2023-04-27T04:04:49.316Z,596.00
2023-04-27T04:05:49.270Z,608.00
2023-04-27T04:06:49.276Z,628.00
2023-04-27T04:07:49.292Z,648.00
2023-04-27T04:08:49.304Z,664.00
2023-04-27T04:09:49.310Z,684.00
2023-04-27T04:10:49.333Z,692.00
2023-04-27T04:11:49.337Z,700.00
2023-04-27T04:12:49.348Z,708.00
2023-04-27T04:13:49.355Z,728.00
2023-04-27T04:14:49.378Z,760.00
2023-04-27T04:15:49.434Z,784.00
2023-04-27T04:16:49.394Z,800.00
2023-04-27T04:17:49.486Z,832.00
2023-04-27T04:18:49.418Z,876.00
2023-04-27T04:19:49.435Z,936.00
2023-04-27T04:20:49.444Z,996.00
2023-04-27T04:21:49.450Z,1036.00
2023-04-27T04:22:49.469Z,1056.00
2023-04-27T04:23:49.471Z,1068.00
2023-04-27T04:24:49.493Z,1076.00
2023-04-27T04:25:49.496Z,1100.00
2023-04-27T04:26:49.512Z,1148.00
2023-04-27T04:27:49.531Z,1208.00
2023-04-27T04:28:49.529Z,1264.00
2023-04-27T04:29:49.543Z,1340.00
2023-04-27T04:30:49.553Z,1428.00
2023-04-27T04:31:49.630Z,1516.00
2023-04-27T04:32:49.632Z,1616.00
2023-04-27T04:33:49.592Z,1724.00
2023-04-27T04:34:49.607Z,1828.00
2023-04-27T04:35:49.616Z,1932.00
2023-04-27T04:36:49.626Z,2012.00
2023-04-27T04:37:49.645Z,2056.00
2023-04-27T04:38:49.647Z,2036.00
2023-04-27T04:39:49.675Z,1996.00
2023-04-27T04:40:49.674Z,1976.00
2023-04-27T04:41:49.688Z,2004.00
2023-04-27T04:42:49.694Z,2088.00
2023-04-27T04:43:49.721Z,2228.00
2023-04-27T04:44:49.717Z,2388.00
2023-04-27T04:45:49.726Z,2488.00
2023-04-27T04:46:49.839Z,2560.00
2023-04-27T04:47:49.770Z,2648.00
2023-04-27T04:48:49.767Z,2724.00
2023-04-27T04:49:49.783Z,2780.00
2023-04-27T04:50:49.789Z,2820.00
2023-04-27T04:51:49.801Z,2860.00
2023-04-27T04:52:49.822Z,2972.00
2023-04-27T04:53:49.836Z,3072.00
2023-04-27T04:54:49.837Z,3160.00
2023-04-27T04:55:49.850Z,3264.00
2023-04-27T04:56:49.863Z,3372.00
2023-04-27T04:57:49.871Z,3548.00
2023-04-27T04:58:49.880Z,3724.00
2023-04-27T04:59:49.899Z,3840.00
2023-04-27T05:00:49.906Z,3968.00
2023-04-27T05:01:49.938Z,4096.00
2023-04-27T05:02:50.069Z,4196.00
2023-04-27T05:03:50.060Z,4312.00
2023-04-27T05:04:50.082Z,4400.00
2023-04-27T05:05:49.970Z,4428.00
2023-04-27T05:06:49.982Z,4472.00
2023-04-27T05:07:49.995Z,4568.00
2023-04-27T05:08:50.015Z,4668.00
2023-04-27T05:09:50.019Z,4752.00
2023-04-27T05:10:50.032Z,4844.00
2023-04-27T05:11:50.043Z,4960.00
2023-04-27T05:12:50.055Z,5044.00
2023-04-27T05:13:50.069Z,5152.00
2023-04-27T05:14:50.081Z,5324.00
2023-04-27T05:15:50.110Z,5608.00
2023-04-27T05:16:50.101Z,5912.00
2023-04-27T05:17:50.143Z,6136.00
2023-04-27T05:18:50.150Z,6300.00
2023-04-27T05:19:50.141Z,6468.00
2023-04-27T05:20:50.155Z,6612.00
2023-04-27T05:21:50.166Z,6676.00
2023-04-27T05:22:50.193Z,6680.00
2023-04-27T05:23:50.191Z,6684.00
2023-04-27T05:24:50.206Z,6680.00
2023-04-27T05:25:50.217Z,6668.00
2023-04-27T05:26:50.228Z,6772.00
2023-04-27T05:27:50.242Z,6932.00
2023-04-27T05:28:50.260Z,7236.00
2023-04-27T05:29:50.264Z,7664.00
2023-04-27T05:30:50.279Z,8008.00
2023-04-27T05:31:50.347Z,8308.00
2023-04-27T05:32:50.339Z,8568.00
2023-04-27T05:33:50.318Z,8720.00
2023-04-27T05:34:50.331Z,8904.00
2023-04-27T05:35:50.362Z,9300.00
2023-04-27T05:36:50.365Z,9784.00
2023-04-27T05:37:50.391Z,10196.00
2023-04-27T05:38:50.384Z,10404.00
2023-04-27T05:39:50.430Z,10596.00
2023-04-27T05:40:50.425Z,10712.00
2023-04-27T05:41:50.440Z,10840.00
2023-04-27T05:42:50.432Z,10856.00
2023-04-27T05:43:50.451Z,10864.00
2023-04-27T05:44:50.469Z,10884.00
2023-04-27T05:45:50.504Z,10888.00
2023-04-27T05:46:50.510Z,10844.00
2023-04-27T05:47:50.632Z,10856.00
2023-04-27T05:48:50.517Z,10856.00
2023-04-27T05:49:50.548Z,10856.00
2023-04-27T05:50:50.546Z,10884.00
2023-04-27T05:51:50.556Z,11148.00
2023-04-27T05:52:50.576Z,12084.00
2023-04-27T05:53:50.596Z,12028.00
2023-04-27T05:54:50.609Z,12280.00
2023-04-27T05:55:50.614Z,12160.00
2023-04-27T05:56:50.630Z,12920.00
2023-04-27T05:57:57.288Z,12448.00
2023-04-27T05:58:50.654Z,12576.00
2023-04-27T05:59:50.676Z,12380.00
2023-04-27T06:00:50.689Z,13240.00
2023-04-27T06:01:50.708Z,12480.00
2023-04-27T06:02:50.805Z,13024.00
2023-04-27T06:03:50.842Z,13048.00
2023-04-27T06:04:50.760Z,14108.00
2023-04-27T06:05:50.751Z,13400.00
2023-04-27T06:06:50.770Z,13284.00
2023-04-27T06:07:50.785Z,13492.00
2023-04-27T06:08:50.806Z,13900.00
2023-04-27T06:09:50.813Z,14244.00
2023-04-27T06:10:50.821Z,14392.00
2023-04-27T06:11:50.837Z,14892.00
2023-04-27T06:12:50.857Z,15160.00
2023-04-27T06:13:50.866Z,16512.00
2023-04-27T06:14:50.880Z,16992.00
2023-04-27T06:15:50.933Z,19232.00
2023-04-27T06:16:50.917Z,18144.00
2023-04-27T06:17:50.965Z,20000.00
2023-04-27T06:18:50.942Z,21216.00
2023-04-27T06:19:50.955Z,23616.00
2023-04-27T06:20:50.972Z,21664.00
2023-04-27T06:21:50.991Z,23520.00
2023-04-27T06:22:51.012Z,30880.00
2023-04-27T06:23:51.012Z,18112.00
2023-04-27T06:24:51.029Z,15760.00
2023-04-27T06:25:51.446Z,19040.00
2023-04-27T06:26:51.081Z,13992.00
2023-04-27T06:27:51.074Z,33824.00
2023-04-27T06:28:51.096Z,15344.00
2023-04-27T06:29:51.103Z,17440.00
2023-04-27T06:30:51.120Z,34752.00
2023-04-27T06:31:51.195Z,16244.00
2023-04-27T06:32:51.172Z,34464.00
2023-04-27T06:33:51.167Z,26944.00
2023-04-27T06:34:51.184Z,37408.00
2023-04-27T06:35:51.205Z,18080.00
2023-04-27T06:36:51.214Z,17504.00
2023-04-27T06:37:51.232Z,41664.00
2023-04-27T06:38:51.247Z,31872.00
2023-04-27T06:39:51.264Z,39136.00
2023-04-27T06:40:51.280Z,23552.00
2023-04-27T06:41:51.295Z,31200.00
2023-04-27T06:42:51.310Z,37760.00
2023-04-27T06:43:51.333Z,35328.00
2023-04-27T06:44:51.345Z,15092.00
2023-04-27T06:45:51.387Z,13408.00
2023-04-27T06:46:51.377Z,12440.00
2023-04-27T06:47:51.476Z,15292.00
2023-04-27T06:48:51.415Z,23840.00
2023-04-27T06:49:51.463Z,41472.00
2023-04-27T06:50:51.444Z,38272.00
2023-04-27T06:51:51.458Z,38816.00
2023-04-27T06:52:51.501Z,22304.00
2023-04-27T06:53:51.492Z,13696.00
2023-04-27T06:54:51.527Z,14032.00
2023-04-27T06:55:51.532Z,30336.00
2023-04-27T06:56:51.544Z,25408.00
2023-04-27T06:57:51.566Z,31424.00
2023-04-27T06:58:51.574Z,33568.00
2023-04-27T06:59:51.592Z,21344.00
2023-04-27T07:00:51.617Z,29056.00
2023-04-27T07:01:51.763Z,32736.00
2023-04-27T07:02:51.758Z,24480.00
2023-04-27T07:03:51.894Z,15980.00
2023-04-27T07:04:51.725Z,31072.00
2023-04-27T07:05:51.734Z,32224.00
2023-04-27T07:06:51.710Z,26944.00
2023-04-27T07:07:51.729Z,19520.00
2023-04-27T07:08:51.746Z,23424.00
2023-04-27T07:09:51.760Z,16908.00
2023-04-27T07:10:51.783Z,33280.00
2023-04-27T07:11:51.798Z,15900.00
2023-04-27T07:12:51.830Z,33696.00
2023-04-27T07:13:51.832Z,28544.00
2023-04-27T07:14:51.856Z,19584.00
2023-04-27T07:15:51.881Z,17728.00
2023-04-27T07:16:51.893Z,16996.00
2023-04-27T07:17:51.937Z,17472.00
2023-04-27T07:18:51.922Z,35808.00
2023-04-27T07:19:51.942Z,25056.00
2023-04-27T07:20:51.960Z,28864.00
2023-04-27T07:21:51.991Z,27200.00
2023-04-27T07:22:51.993Z,35424.00
2023-04-27T07:23:52.961Z,20512.00
2023-04-27T07:24:52.036Z,25184.00
2023-04-27T07:25:52.129Z,35008.00
2023-04-27T07:26:52.072Z,33824.00
2023-04-27T07:27:52.088Z,30304.00
2023-04-27T07:28:52.111Z,36448.00
2023-04-27T07:29:52.128Z,21120.00
2023-04-27T07:30:52.145Z,41984.00
2023-04-27T07:31:52.407Z,42048.00
2023-04-27T07:32:52.225Z,39232.00
2023-04-27T07:33:52.200Z,12960.00
2023-04-27T07:34:54.105Z,14148.00
2023-04-27T07:35:52.247Z,16216.00
2023-04-27T07:36:52.251Z,43392.00
2023-04-27T07:37:52.283Z,33920.00
2023-04-27T07:38:52.301Z,14588.00
2023-04-27T07:39:52.336Z,14880.00
2023-04-27T07:40:52.359Z,14460.00
2023-04-27T07:41:52.353Z,27360.00
2023-04-27T07:42:52.370Z,38400.00
2023-04-27T07:43:52.386Z,28096.00
2023-04-27T07:44:52.518Z,44032.00
2023-04-27T07:45:52.484Z,32224.00
2023-04-27T07:46:52.440Z,46688.00
2023-04-27T07:47:52.507Z,49088.00
2023-04-27T07:48:52.479Z,46112.00
2023-04-27T07:49:52.495Z,43296.00
2023-04-27T07:50:52.513Z,12524.00
2023-04-27T07:51:52.536Z,10588.00
2023-04-27T07:52:52.563Z,12336.00
2023-04-27T07:53:52.578Z,28160.00
2023-04-27T07:54:52.602Z,41696.00
2023-04-27T07:55:52.622Z,42144.00
2023-04-27T07:56:52.637Z,43616.00
2023-04-27T07:57:52.667Z,44864.00
2023-04-27T07:58:52.672Z,46528.00
2023-04-27T07:59:52.700Z,46144.00
2023-04-27T08:00:52.709Z,48288.00
2023-04-27T08:01:53.551Z,48032.00
2023-04-27T08:02:52.906Z,19296.00
2023-04-27T08:03:52.989Z,20896.00
2023-04-27T08:04:53.211Z,19040.00
2023-04-27T08:05:53.149Z,41920.00
2023-04-27T08:06:53.188Z,17216.00
2023-04-27T08:07:53.211Z,13448.00
2023-04-27T08:08:52.904Z,14416.00
2023-04-27T08:09:52.892Z,15108.00
2023-04-27T08:10:52.910Z,15296.00
2023-04-27T08:11:52.929Z,17760.00
2023-04-27T08:12:52.954Z,20992.00
2023-04-27T08:13:52.966Z,23488.00
2023-04-27T08:14:52.993Z,24512.00
2023-04-27T08:15:53.005Z,23680.00
2023-04-27T08:16:53.121Z,20832.00
2023-04-27T08:17:53.096Z,20192.00
2023-04-27T08:18:53.068Z,19424.00
2023-04-27T08:19:53.093Z,18112.00
2023-04-27T08:20:53.107Z,15652.00
2023-04-27T08:21:53.120Z,13224.00
2023-04-27T08:22:53.140Z,10700.00
2023-04-27T08:23:53.163Z,8960.00
2023-04-27T08:24:53.180Z,8876.00
2023-04-27T08:25:53.203Z,10136.00
2023-04-27T08:26:53.239Z,12148.00
2023-04-27T08:27:53.247Z,13128.00
2023-04-27T08:28:53.254Z,13040.00
2023-04-27T08:29:53.277Z,12572.00
2023-04-27T08:30:53.337Z,12004.00
2023-04-27T08:31:55.717Z,10640.00
2023-04-27T08:32:53.401Z,9240.00
2023-04-27T08:33:53.346Z,8124.00
2023-04-27T08:34:53.361Z,6708.00
2023-04-27T08:35:53.380Z,5664.00
2023-04-27T08:36:53.403Z,5748.00
2023-04-27T08:37:53.422Z,7024.00
2023-04-27T08:38:53.430Z,7908.00
2023-04-27T08:39:53.461Z,8252.00
2023-04-27T08:40:53.470Z,8688.00
2023-04-27T08:41:53.494Z,10108.00
2023-04-27T08:42:53.497Z,12992.00
2023-04-27T08:43:53.514Z,16604.00
2023-04-27T08:44:53.530Z,19808.00
2023-04-27T08:45:53.598Z,21952.00
2023-04-27T08:46:53.681Z,22112.00
2023-04-27T08:47:53.630Z,19904.00
2023-04-27T08:48:53.607Z,16752.00
2023-04-27T08:49:53.618Z,14168.00
2023-04-27T08:50:53.648Z,12952.00
2023-04-27T08:51:53.664Z,12572.00
2023-04-27T08:52:53.675Z,12556.00
2023-04-27T08:53:53.681Z,13168.00
2023-04-27T08:54:53.697Z,14176.00
2023-04-27T08:55:53.718Z,15452.00
2023-04-27T08:56:53.744Z,16468.00
2023-04-27T08:57:53.754Z,17168.00
2023-04-27T08:58:53.768Z,17472.00
2023-04-27T08:59:53.818Z,17664.00
2023-04-27T09:00:53.800Z,16888.00
2023-04-27T09:01:53.854Z,16592.00
2023-04-27T09:02:53.944Z,16452.00
2023-04-27T09:03:53.989Z,16380.00
2023-04-27T09:04:54.092Z,16432.00
2023-04-27T09:06:04.242Z,16072.00
2023-04-27T09:06:53.901Z,17920.00
2023-04-27T09:07:53.917Z,21184.00
2023-04-27T09:08:53.936Z,23968.00
2023-04-27T09:09:53.966Z,23776.00
2023-04-27T09:10:53.972Z,21952.00
2023-04-27T09:11:53.996Z,18464.00
2023-04-27T09:12:54.003Z,14236.00
2023-04-27T09:13:54.030Z,12256.00
2023-04-27T09:14:54.037Z,11280.00
2023-04-27T09:15:54.107Z,10520.00
2023-04-27T09:16:54.098Z,9784.00
2023-04-27T09:17:54.167Z,8920.00
2023-04-27T09:18:54.106Z,8248.00
2023-04-27T09:19:54.122Z,7836.00
2023-04-27T09:20:54.142Z,7776.00
2023-04-27T09:21:54.156Z,8120.00
2023-04-27T09:22:54.175Z,8512.00
2023-04-27T09:23:54.209Z,8956.00
2023-04-27T09:24:54.218Z,9528.00
2023-04-27T09:25:54.228Z,10156.00
2023-04-27T09:26:54.249Z,10912.00
2023-04-27T09:27:54.286Z,12060.00
2023-04-27T09:28:54.286Z,13596.00
2023-04-27T09:29:54.292Z,15400.00
2023-04-27T09:30:54.309Z,18080.00
2023-04-27T09:31:54.395Z,20832.00
2023-04-27T09:32:54.380Z,22752.00
2023-04-27T09:33:54.358Z,23008.00
2023-04-27T09:34:54.376Z,22656.00
2023-04-27T09:35:54.405Z,21440.00
2023-04-27T09:36:54.410Z,20672.00
2023-04-27T09:37:54.441Z,19968.00
2023-04-27T09:38:54.446Z,19840.00
2023-04-27T09:39:54.460Z,20416.00
2023-04-27T09:40:54.474Z,20992.00
2023-04-27T09:41:54.492Z,21376.00
2023-04-27T09:42:54.512Z,21280.00
2023-04-27T09:43:55.764Z,21440.00
2023-04-27T09:44:54.556Z,21664.00
2023-04-27T09:45:54.634Z,21824.00
2023-04-27T09:46:54.579Z,21216.00
2023-04-27T09:47:54.640Z,20736.00
2023-04-27T09:48:54.612Z,20896.00
2023-04-27T09:49:54.630Z,20928.00
2023-04-27T09:50:54.650Z,20352.00
2023-04-27T09:51:54.662Z,19424.00
2023-04-27T09:52:54.684Z,18176.00
2023-04-27T09:53:54.699Z,16952.00
2023-04-27T09:54:54.744Z,17308.00
2023-04-27T09:55:54.733Z,16704.00
2023-04-27T09:56:54.751Z,16756.00
2023-04-27T09:57:54.769Z,17120.00
2023-04-27T09:58:54.794Z,42176.00
2023-04-27T09:59:54.802Z,44992.00
2023-04-27T10:00:54.837Z,19520.00
2023-04-27T10:01:54.843Z,17524.00
2023-04-27T10:02:54.924Z,20096.00
2023-04-27T10:03:55.014Z,22784.00
2023-04-27T10:04:55.000Z,38496.00
2023-04-27T10:05:54.909Z,37696.00
2023-04-27T10:06:55.908Z,45024.00
2023-04-27T10:07:54.945Z,21408.00
2023-04-27T10:08:54.967Z,22688.00
2023-04-27T10:09:54.981Z,39360.00
2023-04-27T10:10:55.003Z,29632.00
2023-04-27T10:11:55.022Z,69216.00
2023-04-27T10:12:55.047Z,67488.00
2023-04-27T10:13:55.245Z,52736.00
2023-04-27T10:14:55.083Z,36192.00
2023-04-27T10:15:55.102Z,31008.00
2023-04-27T10:16:55.167Z,43072.00
2023-04-27T10:17:55.200Z,63904.00
2023-04-27T10:18:55.160Z,79712.00
2023-04-27T10:19:57.319Z,82592.00
2023-04-27T10:20:55.207Z,67712.00
2023-04-27T10:21:55.233Z,63840.00
2023-04-27T10:22:55.250Z,80064.00
2023-04-27T10:23:55.273Z,78048.00
2023-04-27T10:24:55.310Z,76608.00
2023-04-27T10:25:55.321Z,74784.00
2023-04-27T10:26:55.345Z,73888.00
2023-04-27T10:27:55.369Z,72128.00
2023-04-27T10:28:55.398Z,70304.00
2023-04-27T10:29:55.422Z,69376.00
2023-04-27T10:30:55.500Z,69312.00
2023-04-27T10:31:55.475Z,69536.00
2023-04-27T10:32:55.569Z,71904.00
2023-04-27T10:33:55.539Z,73536.00
2023-04-27T10:34:55.551Z,73504.00
2023-04-27T10:35:55.577Z,70208.00
2023-04-27T10:36:55.609Z,15600.00
2023-04-27T10:37:55.633Z,11412.00
2023-04-27T10:38:55.666Z,10496.00
2023-04-27T10:39:55.687Z,10488.00
2023-04-27T10:40:55.720Z,11768.00
2023-04-27T10:41:55.750Z,8396.00
2023-04-27T10:42:55.772Z,7756.00
2023-04-27T10:43:55.799Z,7896.00
2023-04-27T10:44:55.826Z,8472.00
2023-04-27T10:45:55.909Z,8684.00
2023-04-27T10:46:55.881Z,8844.00
2023-04-27T10:47:55.974Z,8916.00
2023-04-27T10:48:55.927Z,9072.00
2023-04-27T10:49:55.951Z,9524.00
2023-04-27T10:50:55.983Z,10204.00
2023-04-27T10:51:56.004Z,10812.00
2023-04-27T10:52:56.025Z,11364.00
2023-04-27T10:53:56.048Z,11720.00
2023-04-27T10:54:56.077Z,11928.00
2023-04-27T10:55:56.112Z,12044.00
2023-04-27T10:56:56.118Z,12200.00
2023-04-27T10:57:56.147Z,12504.00
2023-04-27T10:58:56.176Z,13008.00
2023-04-27T10:59:56.190Z,13976.00
2023-04-27T11:00:56.214Z,15236.00
2023-04-27T11:01:56.274Z,16372.00
2023-04-27T11:02:56.356Z,18304.00
2023-04-27T11:03:56.332Z,19776.00
2023-04-27T11:04:56.364Z,20736.00
2023-04-27T11:05:58.036Z,22240.00
2023-04-27T11:06:56.361Z,22880.00
2023-04-27T11:07:56.355Z,21856.00
2023-04-27T11:08:56.431Z,20928.00
2023-04-27T11:09:56.423Z,17792.00
2023-04-27T11:10:56.416Z,69120.00
2023-04-27T11:11:56.453Z,73792.00
2023-04-27T11:12:56.463Z,75456.00
2023-04-27T11:13:56.484Z,45792.00
2023-04-27T11:14:56.494Z,75808.00
2023-04-27T11:15:56.548Z,60288.00
2023-04-27T11:16:56.541Z,78464.00
2023-04-27T11:17:56.588Z,78976.00
2023-04-27T11:18:57.918Z,78720.00
2023-04-27T11:19:56.611Z,78144.00
2023-04-27T11:20:56.632Z,76416.00
2023-04-27T11:21:56.659Z,74944.00
2023-04-27T11:22:56.682Z,62496.00
2023-04-27T11:23:56.709Z,74560.00
2023-04-27T11:24:56.728Z,73088.00
2023-04-27T11:25:56.756Z,73312.00
2023-04-27T11:26:56.792Z,68352.00
2023-04-27T11:27:56.807Z,32704.00
2023-04-27T11:28:56.861Z,47040.00
2023-04-27T11:29:56.862Z,26656.00
2023-04-27T11:30:56.891Z,23584.00
2023-04-27T11:31:56.956Z,23936.00
2023-04-27T11:32:56.964Z,45280.00
2023-04-27T11:33:56.971Z,26752.00
2023-04-27T11:34:59.102Z,34144.00
2023-04-27T11:35:57.025Z,27456.00
2023-04-27T11:37:03.780Z,72800.00
2023-04-27T11:37:57.076Z,45824.00
2023-04-27T11:38:57.181Z,80256.00
2023-04-27T11:39:57.128Z,79488.00
2023-04-27T11:40:57.155Z,54976.00
2023-04-27T11:41:57.180Z,28128.00
2023-04-27T11:42:57.205Z,30112.00
2023-04-27T11:43:57.236Z,21568.00
2023-04-27T11:44:57.274Z,19584.00
2023-04-27T11:45:57.288Z,17792.00
2023-04-27T11:46:57.352Z,16704.00
2023-04-27T11:47:57.425Z,15860.00
2023-04-27T11:48:57.367Z,15760.00
2023-04-27T11:49:57.403Z,15896.00
2023-04-27T11:50:57.419Z,16244.00
2023-04-27T11:51:57.443Z,16832.00
2023-04-27T11:52:57.471Z,17600.00
2023-04-27T11:53:57.495Z,19168.00
2023-04-27T11:54:57.522Z,20736.00
2023-04-27T11:55:57.536Z,23680.00
2023-04-27T11:56:57.563Z,41056.00
2023-04-27T11:57:57.590Z,68000.00
2023-04-27T11:58:57.613Z,35776.00
2023-04-27T11:59:57.635Z,28960.00
2023-04-27T12:00:57.659Z,28768.00
2023-04-27T12:01:57.700Z,25856.00
2023-04-27T12:02:57.863Z,25024.00
2023-04-27T12:04:00.005Z,24320.00
2023-04-27T12:04:57.851Z,23872.00
2023-04-27T12:06:04.046Z,23488.00
2023-04-27T12:06:57.795Z,23264.00
2023-04-27T12:07:57.828Z,23136.00
2023-04-27T12:08:57.846Z,22880.00
2023-04-27T12:09:59.553Z,21696.00
2023-04-27T12:10:57.889Z,20640.00
2023-04-27T12:11:57.913Z,19616.00
2023-04-27T12:12:57.940Z,18688.00
2023-04-27T12:13:57.978Z,17856.00
2023-04-27T12:14:57.988Z,17440.00
2023-04-27T12:15:59.102Z,17440.00